Accueil
METAR-TAF:

METAR-TAF

Aéroports :

Vamdrup

Kolding, Danemark

latitude: 55-26N, longitude: 009-20E, altitude: 44 m

Observation

Le bulletin a été fait il y a 31 minutes, à 02:20 UTC
Vent 8 kt de sud-ouest
Température 16°C
Humidité 88%
Pression 1011 hPa

METAR: EKVD 200220Z AUTO 22008KT //// ///////// 16/14 Q1011

Heure: 04:51 (02:51 UTC)

Prévision

Le bulletin a été fait il y a 15 heures et 25 minutes, à 11:26 UTC
Prévision valable du 19 à 12 UTC au 19 à 16 UTC
Vent 12 kt de sud/sud-ouest
Visibilité 10 km ou plus
Nuages épars à une hauteur de 1200 ft

TAF: EKVD 191126Z 1912/1916 21012KT 9999 SCT012

Observations et prévisions météorologiques de plus de 4000 aéroports (messages METAR et TAF).

Les stations disponibles sont représentées par des disques jaunes et rouges sur la carte.

Passer la souris dessus pour voir le nom de la station.

Cliquer dessus pour voir les observations et prévisions météorologiques.

Pour changer de carte: cliquez sur les boutons verts avec une croix noire pour zoomer, sur le bouton vert avec un tiret pour effectuer un zoom arrière, ou sur les flèches vertes pour les cartes adjacentes.


METAR-TAF: